Terminal Aerodrome Forecast
Issued by NWS Cleveland, OH

Home | Current Version | Previous Version | Text Only | Print | Product List | Glossary On
Versions: 1 2 3 4 5 6 7 8 9 10 11 12 13 14 15 16 17 18 19 20 21 22 23 24 25 26 27 28 29 30
000
FTUS41 KCLE 281200 AAA
TAFCLE
TAF AMD
KCLE 281219Z 2812/2918 31010G18KT P6SM VCSH SCT015 BKN030
      TEMPO 2812/2815 4SM SHRA BR BKN015
     FM281500 33015G22KT P6SM VCSH BKN022 OVC035
     FM281900 34015G22KT P6SM BKN035
     FM290000 35008KT P6SM BKN030
     FM290500 28005KT P6SM SCT030
     FM291500 27009KT P6SM BKN035=

USA.gov is the U.S. government's official web portal to all federal, state and local government web resources and services.